createdAt,value
2023-02-09T00:00:01.866Z,56.97
2023-02-09T00:00:59.195Z,50.88
2023-02-09T00:01:59.179Z,48.00
2023-02-09T00:02:59.088Z,55.64
2023-02-09T00:03:59.125Z,51.54
2023-02-09T00:04:59.104Z,45.95
2023-02-09T00:05:59.061Z,45.64
2023-02-09T00:07:00.725Z,51.42
2023-02-09T00:08:00.078Z,52.34
2023-02-09T00:08:59.071Z,45.91
2023-02-09T00:09:59.037Z,51.22
2023-02-09T00:10:59.038Z,45.77
2023-02-09T00:11:59.029Z,50.81
2023-02-09T00:12:59.027Z,51.08
2023-02-09T00:13:58.991Z,45.92
2023-02-09T00:14:59.001Z,48.51
2023-02-09T00:15:59.045Z,52.79
2023-02-09T00:16:59.000Z,51.45
2023-02-09T00:17:58.964Z,46.02
2023-02-09T00:18:59.004Z,51.08
2023-02-09T00:19:59.465Z,46.50
2023-02-09T00:21:30.858Z,49.78
2023-02-09T00:21:59.493Z,61.43
2023-02-09T00:22:59.927Z,54.59
2023-02-09T00:23:58.948Z,50.78
2023-02-09T00:24:58.918Z,47.43
2023-02-09T00:25:58.897Z,46.04
2023-02-09T00:26:58.913Z,46.73
2023-02-09T00:27:59.028Z,59.04
2023-02-09T00:28:58.907Z,51.99
2023-02-09T00:29:58.891Z,51.59
2023-02-09T00:30:58.898Z,45.78
2023-02-09T00:31:58.917Z,45.62
2023-02-09T00:32:58.852Z,45.76
2023-02-09T00:33:59.027Z,45.72
2023-02-09T00:34:58.892Z,54.83
2023-02-09T00:35:58.828Z,45.82
2023-02-09T00:36:58.811Z,47.78
2023-02-09T00:37:59.491Z,54.21
2023-02-09T00:38:58.823Z,52.60
2023-02-09T00:39:58.835Z,45.49
2023-02-09T00:40:58.832Z,45.88
2023-02-09T00:41:58.789Z,50.34
2023-02-09T00:42:59.466Z,51.66
2023-02-09T00:43:58.779Z,46.15
2023-02-09T00:44:58.773Z,53.84
2023-02-09T00:45:58.885Z,46.49
2023-02-09T00:46:59.497Z,46.14
2023-02-09T00:47:58.817Z,46.13
2023-02-09T00:48:58.754Z,45.54
2023-02-09T00:49:58.748Z,55.43
2023-02-09T00:50:58.772Z,47.04
2023-02-09T00:51:58.764Z,56.49
2023-02-09T00:52:58.737Z,58.21
2023-02-09T00:53:58.718Z,46.37
2023-02-09T00:54:58.752Z,46.03
2023-02-09T00:55:58.736Z,59.14
2023-02-09T00:56:58.716Z,46.84
2023-02-09T00:57:58.717Z,50.52
2023-02-09T00:58:58.690Z,51.70
2023-02-09T00:59:59.491Z,50.67
2023-02-09T01:00:58.690Z,46.66
2023-02-09T01:01:58.671Z,49.28
2023-02-09T01:02:58.669Z,45.85
2023-02-09T01:03:58.634Z,46.00
2023-02-09T01:04:58.759Z,46.03
2023-02-09T01:05:59.472Z,46.63
2023-02-09T01:06:58.666Z,51.86
2023-02-09T01:07:58.625Z,45.88
2023-02-09T01:08:59.462Z,46.54
2023-02-09T01:09:58.629Z,59.42
2023-02-09T01:10:58.580Z,46.82
2023-02-09T01:11:58.575Z,52.84
2023-02-09T01:12:58.578Z,48.34
2023-02-09T01:13:58.631Z,46.14
2023-02-09T01:14:58.572Z,57.38
2023-02-09T01:15:58.569Z,57.96
2023-02-09T01:16:58.602Z,64.43
2023-02-09T01:17:58.577Z,51.76
2023-02-09T01:18:58.545Z,52.82
2023-02-09T01:19:58.553Z,46.13
2023-02-09T01:20:58.509Z,46.21
2023-02-09T01:21:58.487Z,54.85
2023-02-09T01:22:58.517Z,49.49
2023-02-09T01:23:58.532Z,54.04
2023-02-09T01:24:58.500Z,51.25
2023-02-09T01:25:58.469Z,57.68
2023-02-09T01:26:58.493Z,46.56
2023-02-09T01:27:58.498Z,51.14
2023-02-09T01:28:58.477Z,51.91
2023-02-09T01:29:58.442Z,46.39
2023-02-09T01:30:58.554Z,45.99
2023-02-09T01:31:58.573Z,51.68
2023-02-09T01:32:58.433Z,46.07
2023-02-09T01:33:58.411Z,46.33
2023-02-09T01:34:58.429Z,52.31
2023-02-09T01:35:58.404Z,50.98
2023-02-09T01:36:58.382Z,51.43
2023-02-09T01:37:58.373Z,52.20
2023-02-09T01:38:58.415Z,48.75
2023-02-09T01:39:58.404Z,51.33
2023-02-09T01:40:58.374Z,46.12
2023-02-09T01:41:58.374Z,53.96
2023-02-09T01:42:58.381Z,51.05
2023-02-09T01:43:58.349Z,45.75
2023-02-09T01:44:58.353Z,45.92
2023-02-09T01:45:58.360Z,47.65
2023-02-09T01:46:58.391Z,55.47
2023-02-09T01:47:58.338Z,54.77
2023-02-09T01:48:58.324Z,47.26
2023-02-09T01:49:58.345Z,55.71
2023-02-09T01:50:58.312Z,49.87
2023-02-09T01:51:58.298Z,48.77
2023-02-09T01:52:58.275Z,52.62
2023-02-09T01:53:58.262Z,47.69
2023-02-09T01:54:58.981Z,57.14
2023-02-09T01:55:58.270Z,46.56
2023-02-09T01:56:58.270Z,46.90
2023-02-09T01:57:58.275Z,51.67
2023-02-09T01:58:58.263Z,52.69
2023-02-09T01:59:58.225Z,56.28
2023-02-09T02:01:00.026Z,51.80
2023-02-09T02:01:59.203Z,51.69
2023-02-09T02:02:58.208Z,46.30
2023-02-09T02:03:58.218Z,46.07
2023-02-09T02:04:58.195Z,51.43
2023-02-09T02:05:58.164Z,51.80
2023-02-09T02:06:58.219Z,52.28
2023-02-09T02:07:58.190Z,51.40
2023-02-09T02:08:58.170Z,51.04
2023-02-09T02:09:58.164Z,52.58
2023-02-09T02:10:59.232Z,47.28
2023-02-09T02:11:58.127Z,46.05
2023-02-09T02:12:58.855Z,57.61
2023-02-09T02:13:58.143Z,51.06
2023-02-09T02:14:58.105Z,45.81
2023-02-09T02:15:58.141Z,46.29
2023-02-09T02:16:58.103Z,51.86
2023-02-09T02:17:58.131Z,47.49
2023-02-09T02:18:58.089Z,49.88
2023-02-09T02:19:58.082Z,56.10
2023-02-09T02:20:58.064Z,46.02
2023-02-09T02:21:58.061Z,51.84
2023-02-09T02:22:58.039Z,46.56
2023-02-09T02:23:58.051Z,51.82
2023-02-09T02:24:58.057Z,52.02
2023-02-09T02:25:58.035Z,46.77
2023-02-09T02:26:58.016Z,46.72
2023-02-09T02:27:58.061Z,51.00
2023-02-09T02:28:58.029Z,46.17
2023-02-09T02:29:57.998Z,51.45
2023-02-09T02:30:58.028Z,50.95
2023-02-09T02:31:58.117Z,45.82
2023-02-09T02:32:57.987Z,50.81
2023-02-09T02:33:57.979Z,46.39
2023-02-09T02:34:57.974Z,53.04
2023-02-09T02:35:57.963Z,50.10
2023-02-09T02:36:57.933Z,48.24
2023-02-09T02:37:58.949Z,50.98
2023-02-09T02:38:57.932Z,45.98
2023-02-09T02:39:57.966Z,46.33
2023-02-09T02:40:57.915Z,46.21
2023-02-09T02:41:57.899Z,50.72
2023-02-09T02:42:57.917Z,53.98
2023-02-09T02:43:57.882Z,48.31
2023-02-09T02:44:57.924Z,45.93
2023-02-09T02:45:57.895Z,46.62
2023-02-09T02:46:57.881Z,51.06
2023-02-09T02:47:57.856Z,50.79
2023-02-09T02:48:57.844Z,51.10
2023-02-09T02:49:57.877Z,48.56
2023-02-09T02:50:57.890Z,50.45
2023-02-09T02:51:57.845Z,46.94
2023-02-09T02:52:57.871Z,48.56
2023-02-09T02:53:58.451Z,50.31
2023-02-09T02:54:57.844Z,55.35
2023-02-09T02:55:57.830Z,55.45
2023-02-09T02:56:57.836Z,46.24
2023-02-09T02:57:57.803Z,48.77
2023-02-09T02:58:57.799Z,48.70
2023-02-09T02:59:57.815Z,45.94
2023-02-09T03:00:57.771Z,45.93
2023-02-09T03:01:57.852Z,46.46
2023-02-09T03:02:57.784Z,50.20
2023-02-09T03:03:57.744Z,45.78
2023-02-09T03:04:57.767Z,45.95
2023-02-09T03:05:57.741Z,46.19
2023-02-09T03:06:57.766Z,46.19
2023-02-09T03:07:57.720Z,46.31
2023-02-09T03:08:57.718Z,53.87
2023-02-09T03:09:57.711Z,50.85
2023-02-09T03:10:57.697Z,67.96
2023-02-09T03:11:57.725Z,50.51
2023-02-09T03:12:57.701Z,53.74
2023-02-09T03:13:57.697Z,46.96
2023-02-09T03:20:33.084Z,51.17
2023-02-09T03:21:33.075Z,46.19
2023-02-09T03:22:34.183Z,45.91
2023-02-09T03:23:34.188Z,46.06
2023-02-09T03:24:34.176Z,48.63
2023-02-09T03:25:34.173Z,48.87
2023-02-09T03:26:34.173Z,46.20
2023-02-09T03:27:34.160Z,46.62
2023-02-09T03:28:34.181Z,52.38
2023-02-09T03:29:34.166Z,48.25
2023-02-09T03:30:34.217Z,53.21
2023-02-09T03:31:34.171Z,47.37
2023-02-09T03:32:34.145Z,51.36
2023-02-09T03:33:34.113Z,53.21
2023-02-09T03:34:34.120Z,46.15
2023-02-09T03:35:34.104Z,46.19
2023-02-09T03:36:34.092Z,48.32
2023-02-09T03:37:34.120Z,54.12
2023-02-09T03:38:34.064Z,52.64
2023-02-09T03:39:34.058Z,53.75
2023-02-09T03:40:34.068Z,51.98
2023-02-09T03:41:34.066Z,50.40
2023-02-09T03:42:34.077Z,60.21
2023-02-09T03:43:34.061Z,47.90
2023-02-09T03:44:34.030Z,52.81
2023-02-09T03:45:34.055Z,54.79
2023-02-09T03:46:34.033Z,61.56
2023-02-09T03:47:34.041Z,57.55
2023-02-09T04:04:13.371Z,55.16
2023-02-09T04:05:13.396Z,49.36
2023-02-09T04:06:13.362Z,60.16
2023-02-09T04:07:13.368Z,49.57
2023-02-09T04:08:13.352Z,47.49
2023-02-09T04:09:13.372Z,59.35
2023-02-09T04:10:13.395Z,56.58
2023-02-09T04:11:13.340Z,61.78
2023-02-09T04:12:13.327Z,61.48
2023-02-09T04:13:13.319Z,54.01
2023-02-09T04:14:13.301Z,61.08
2023-02-09T04:15:13.312Z,58.37
2023-02-09T04:16:13.383Z,56.74
2023-02-09T04:17:13.311Z,62.85
2023-02-09T04:18:13.272Z,62.40
2023-02-09T04:19:13.289Z,61.23
2023-02-09T04:20:13.259Z,55.74
2023-02-09T04:21:14.405Z,62.62
2023-02-09T04:22:14.399Z,58.93
2023-02-09T04:23:14.386Z,63.54
2023-02-09T04:24:14.387Z,65.05
2023-02-09T04:25:14.361Z,59.23
2023-02-09T04:26:14.354Z,67.00
2023-02-09T04:27:14.377Z,58.93
2023-02-09T04:28:15.208Z,65.04
2023-02-09T04:29:14.353Z,56.68
2023-02-09T04:30:14.340Z,57.80
2023-02-09T04:31:15.186Z,62.19
2023-02-09T04:32:14.319Z,65.32
2023-02-09T04:33:14.336Z,65.37
2023-02-09T04:34:14.296Z,56.17
2023-02-09T04:35:14.282Z,60.81
2023-02-09T04:36:14.293Z,62.42
2023-02-09T04:37:14.275Z,52.70
2023-02-09T04:38:14.317Z,63.93
2023-02-09T04:39:14.273Z,63.10
2023-02-09T04:40:14.253Z,62.59
2023-02-09T04:41:14.248Z,59.76
2023-02-09T04:42:14.246Z,63.14
2023-02-09T04:43:14.270Z,61.25
2023-02-09T04:44:14.223Z,65.60
2023-02-09T04:45:15.111Z,69.01
2023-02-09T04:46:14.329Z,67.93
2023-02-09T04:47:14.210Z,55.18
2023-02-09T04:48:14.206Z,66.29
2023-02-09T04:49:14.212Z,67.06
2023-02-09T04:50:14.392Z,65.36
2023-02-09T04:51:14.185Z,63.27
2023-02-09T04:52:14.172Z,64.72
2023-02-09T04:53:14.167Z,64.57
2023-02-09T04:54:14.147Z,61.17
2023-02-09T04:55:14.179Z,61.03
2023-02-09T04:56:15.095Z,68.61
2023-02-09T04:57:15.146Z,63.75
2023-02-09T04:58:16.239Z,66.26
2023-02-09T04:59:14.131Z,62.97
2023-02-09T05:00:14.151Z,60.86
2023-02-09T05:01:14.219Z,58.65
2023-02-09T05:02:14.096Z,63.97
2023-02-09T05:03:14.155Z,64.47
2023-02-09T05:04:14.093Z,69.94
2023-02-09T05:05:14.166Z,62.73
2023-02-09T05:06:14.065Z,66.66
2023-02-09T05:07:14.095Z,61.93
2023-02-09T05:08:14.055Z,64.40
2023-02-09T05:09:15.062Z,65.43
2023-02-09T05:10:14.065Z,66.43
2023-02-09T05:11:14.026Z,64.53
2023-02-09T05:12:14.041Z,67.68
2023-02-09T05:13:14.013Z,57.29
2023-02-09T05:14:14.625Z,66.37
2023-02-09T05:15:14.016Z,64.34
2023-02-09T05:16:14.006Z,70.43
2023-02-09T05:17:14.072Z,56.50
2023-02-09T05:18:14.014Z,64.31
2023-02-09T05:19:13.969Z,65.27
2023-02-09T05:20:13.977Z,63.71
2023-02-09T05:21:13.985Z,66.18
2023-02-09T05:22:13.958Z,70.41
2023-02-09T05:23:13.954Z,67.13
2023-02-09T05:24:13.963Z,64.21
2023-02-09T05:25:14.924Z,64.59
2023-02-09T05:26:14.030Z,67.51
2023-02-09T05:27:13.927Z,68.53
2023-02-09T05:28:13.958Z,68.57
2023-02-09T05:29:13.933Z,58.06
2023-02-09T05:30:13.926Z,66.19
2023-02-09T05:31:13.934Z,67.31
2023-02-09T05:32:13.935Z,58.93
2023-02-09T05:33:13.889Z,74.05
2023-02-09T05:34:13.903Z,67.65
2023-02-09T05:35:13.909Z,66.68
2023-02-09T05:36:13.861Z,66.28
2023-02-09T05:37:13.842Z,70.41
2023-02-09T05:38:13.843Z,70.90
2023-02-09T05:39:13.882Z,63.09
2023-02-09T05:40:14.008Z,65.81
2023-02-09T05:41:14.832Z,63.29
2023-02-09T05:42:13.812Z,64.51
2023-02-09T05:43:13.847Z,66.30
2023-02-09T05:44:13.825Z,73.53
2023-02-09T05:45:13.824Z,74.61
2023-02-09T05:46:13.924Z,63.97
2023-02-09T05:47:13.798Z,72.30
2023-02-09T05:48:13.792Z,67.89
2023-02-09T05:49:13.787Z,65.62
2023-02-09T05:50:13.781Z,68.86
2023-02-09T05:51:13.771Z,70.55
2023-02-09T05:52:13.747Z,70.43
2023-02-09T05:53:15.180Z,69.17
2023-02-09T05:54:14.733Z,65.66
2023-02-09T05:55:13.767Z,69.23
2023-02-09T05:56:13.884Z,67.64
2023-02-09T05:57:13.731Z,65.00
2023-02-09T05:58:13.692Z,62.81
2023-02-09T05:59:13.687Z,72.45
2023-02-09T06:00:13.708Z,68.87
2023-02-09T06:01:14.610Z,65.10
2023-02-09T06:02:13.792Z,68.75
2023-02-09T06:03:13.784Z,69.53
2023-02-09T06:04:14.647Z,71.99
2023-02-09T06:05:13.660Z,71.93
2023-02-09T06:06:13.660Z,69.26
2023-02-09T06:07:13.664Z,70.07
2023-02-09T06:08:13.656Z,61.43
2023-02-09T06:09:13.723Z,66.20
2023-02-09T06:10:13.598Z,73.11
2023-02-09T06:11:13.589Z,71.20
2023-02-09T06:12:14.397Z,73.20
2023-02-09T06:13:13.588Z,70.18
2023-02-09T06:14:13.588Z,66.49
2023-02-09T06:15:13.588Z,70.33
2023-02-09T06:16:13.556Z,70.89
2023-02-09T06:17:13.583Z,68.56
2023-02-09T06:18:13.641Z,72.48
2023-02-09T06:19:13.569Z,69.85
2023-02-09T06:20:13.571Z,74.60
2023-02-09T06:21:45.424Z,73.50
2023-02-09T06:22:13.677Z,63.13
2023-02-09T06:23:13.501Z,72.95
2023-02-09T06:24:13.495Z,69.22
2023-02-09T06:25:13.537Z,70.70
2023-02-09T06:26:13.502Z,73.86
2023-02-09T06:27:13.505Z,72.63
2023-02-09T06:28:13.505Z,74.23
2023-02-09T06:29:13.452Z,64.42
2023-02-09T06:30:14.460Z,73.23
2023-02-09T06:31:13.597Z,73.35
2023-02-09T06:32:13.550Z,72.26
2023-02-09T06:33:13.427Z,70.71
2023-02-09T06:34:13.445Z,73.54
2023-02-09T06:35:13.421Z,73.09
2023-02-09T06:36:13.428Z,72.78
2023-02-09T06:37:13.420Z,69.98
2023-02-09T06:38:13.405Z,74.10
2023-02-09T06:39:14.118Z,68.31
2023-02-09T06:40:13.397Z,69.70
2023-02-09T06:41:13.441Z,73.13
2023-02-09T06:42:13.386Z,71.77
2023-02-09T06:43:13.381Z,70.86
2023-02-09T06:44:13.377Z,73.67
2023-02-09T06:45:13.396Z,70.33
2023-02-09T06:46:13.449Z,72.48
2023-02-09T06:47:13.355Z,73.31
2023-02-09T06:48:13.366Z,73.58
2023-02-09T06:49:13.392Z,72.64
2023-02-09T06:50:13.363Z,73.83
2023-02-09T06:51:13.307Z,74.52
2023-02-09T06:52:13.322Z,73.38
2023-02-09T06:53:13.300Z,68.26
2023-02-09T06:54:13.300Z,68.70
2023-02-09T06:55:13.338Z,68.37
2023-02-09T06:56:13.305Z,67.47
2023-02-09T06:57:13.294Z,71.67
2023-02-09T06:58:13.265Z,68.12
2023-02-09T06:59:13.269Z,68.08
2023-02-09T07:00:13.304Z,68.99
2023-02-09T07:01:13.268Z,69.95
2023-02-09T07:02:13.268Z,68.67
2023-02-09T07:03:13.263Z,66.25
2023-02-09T07:04:13.262Z,72.38
2023-02-09T07:05:13.254Z,65.26
2023-02-09T07:06:13.213Z,65.80
2023-02-09T07:07:13.288Z,66.28
2023-02-09T07:08:13.202Z,72.86
2023-02-09T07:09:13.183Z,67.93
2023-02-09T07:10:13.213Z,66.73
2023-02-09T07:11:13.184Z,64.75
2023-02-09T07:12:13.156Z,71.62
2023-02-09T07:13:13.148Z,66.97
2023-02-09T07:14:13.133Z,70.61
2023-02-09T07:15:13.170Z,70.89
2023-02-09T07:16:13.200Z,70.52
2023-02-09T07:17:13.126Z,70.34
2023-02-09T07:18:13.223Z,67.85
2023-02-09T07:19:13.187Z,63.12
2023-02-09T07:20:13.117Z,67.25
2023-02-09T07:21:14.165Z,64.27
2023-02-09T07:22:13.088Z,70.01
2023-02-09T07:23:13.128Z,67.43
2023-02-09T07:24:13.098Z,70.53
2023-02-09T07:25:13.102Z,64.91
2023-02-09T07:26:13.083Z,72.11
2023-02-09T07:27:13.063Z,65.57
2023-02-09T07:28:13.084Z,62.18
2023-02-09T07:29:13.083Z,70.09
2023-02-09T07:30:14.066Z,75.01
2023-02-09T07:31:13.246Z,63.62
2023-02-09T07:32:13.017Z,72.39
2023-02-09T07:33:13.057Z,66.67
2023-02-09T07:34:13.074Z,68.15
2023-02-09T07:35:13.010Z,70.30
2023-02-09T07:36:13.019Z,73.30
2023-02-09T07:37:13.020Z,64.75
2023-02-09T07:38:12.990Z,71.60
2023-02-09T07:39:12.978Z,73.66
2023-02-09T07:40:12.972Z,66.01
2023-02-09T07:41:13.017Z,68.04
2023-02-09T07:42:12.940Z,66.98
2023-02-09T07:43:12.946Z,65.97
2023-02-09T07:44:12.931Z,69.48
2023-02-09T07:45:12.910Z,72.86
2023-02-09T07:46:12.959Z,72.30
2023-02-09T07:47:12.923Z,69.40
2023-02-09T07:48:12.903Z,69.33
2023-02-09T07:49:14.157Z,66.79
2023-02-09T07:50:12.896Z,69.70
2023-02-09T07:51:12.880Z,68.44
2023-02-09T07:52:14.145Z,60.74
2023-02-09T07:53:12.901Z,64.20
2023-02-09T07:54:12.860Z,68.56
2023-02-09T07:55:12.841Z,67.53
2023-02-09T07:56:12.845Z,70.95
2023-02-09T07:57:12.859Z,65.44
2023-02-09T07:58:12.818Z,64.80
2023-02-09T07:59:12.826Z,64.90
2023-02-09T08:00:12.815Z,67.20
2023-02-09T08:01:12.824Z,67.05
2023-02-09T08:02:12.811Z,71.59
2023-02-09T08:03:12.769Z,66.26
2023-02-09T08:04:12.779Z,67.54
2023-02-09T08:05:12.874Z,67.54
2023-02-09T08:06:12.742Z,60.71
2023-02-09T08:07:12.754Z,61.58
2023-02-09T08:08:12.737Z,68.20
2023-02-09T08:09:12.752Z,63.80
2023-02-09T08:10:12.716Z,66.94
2023-02-09T08:11:12.742Z,62.82
2023-02-09T08:12:12.799Z,66.14
2023-02-09T08:13:12.734Z,67.21
2023-02-09T08:14:12.698Z,63.93
2023-02-09T08:15:12.683Z,66.82
2023-02-09T08:17:59.244Z,71.18
2023-02-09T08:18:59.229Z,59.19
2023-02-09T08:20:00.374Z,68.53
2023-02-09T08:21:00.340Z,68.21
2023-02-09T08:22:00.345Z,64.13
2023-02-09T08:23:00.316Z,70.69
2023-02-09T08:24:00.324Z,61.28
2023-02-09T08:25:00.328Z,69.82
2023-02-09T08:26:00.323Z,62.68
2023-02-09T08:27:00.294Z,66.97
2023-02-09T08:28:00.351Z,64.98
2023-02-09T08:29:00.343Z,70.90
2023-02-09T08:30:00.326Z,61.64
2023-02-09T08:31:00.292Z,65.00
2023-02-09T08:32:00.323Z,61.58
2023-02-09T08:33:00.250Z,58.61
2023-02-09T08:34:00.251Z,67.75
2023-02-09T08:35:00.227Z,65.26
2023-02-09T08:36:00.241Z,61.39
2023-02-09T08:37:00.271Z,69.83
2023-02-09T08:38:00.216Z,70.98
2023-02-09T08:39:00.207Z,66.17
2023-02-09T08:40:00.200Z,68.34
2023-02-09T08:41:00.214Z,66.55
2023-02-09T08:42:00.188Z,68.21
2023-02-09T08:43:00.172Z,67.57
2023-02-09T08:44:00.189Z,68.40
2023-02-09T08:45:00.182Z,70.67
2023-02-09T08:46:00.337Z,70.61
2023-02-09T08:47:00.345Z,62.52
2023-02-09T08:48:00.124Z,63.72
2023-02-09T08:49:00.115Z,63.16
2023-02-09T08:50:00.111Z,66.30
2023-02-09T08:51:01.143Z,61.50
2023-02-09T08:52:00.116Z,59.75
2023-02-09T08:53:00.195Z,70.20
2023-02-09T08:54:00.107Z,63.93
2023-02-09T08:55:00.085Z,68.92
2023-02-09T08:56:00.093Z,66.37
2023-02-09T08:57:00.088Z,68.76
2023-02-09T08:58:00.107Z,67.18
2023-02-09T08:59:00.046Z,68.11
2023-02-09T09:00:00.062Z,66.62
2023-02-09T09:01:00.223Z,64.94
2023-02-09T09:02:00.069Z,66.04
2023-02-09T09:03:00.095Z,71.67
2023-02-09T09:04:00.126Z,60.09
2023-02-09T09:04:59.991Z,68.15
2023-02-09T09:06:00.005Z,65.43
2023-02-09T09:07:00.060Z,66.08
2023-02-09T09:07:59.990Z,67.86
2023-02-09T09:08:59.971Z,65.32
2023-02-09T09:09:59.976Z,60.80
2023-02-09T09:10:59.939Z,63.58
2023-02-09T09:11:59.959Z,63.74
2023-02-09T09:12:59.935Z,65.83
2023-02-09T09:13:59.945Z,71.13
2023-02-09T09:14:59.966Z,68.67
2023-02-09T09:15:59.942Z,65.51
2023-02-09T09:16:59.961Z,67.21
2023-02-09T09:17:59.906Z,65.32
2023-02-09T09:18:59.938Z,65.46
2023-02-09T09:19:59.877Z,65.37
2023-02-09T09:20:59.905Z,69.78
2023-02-09T09:21:59.903Z,64.51
2023-02-09T09:22:59.864Z,64.89
2023-02-09T09:23:59.880Z,61.78
2023-02-09T09:24:59.872Z,69.24
2023-02-09T09:25:59.859Z,58.62
2023-02-09T09:26:59.847Z,57.74
2023-02-09T09:27:59.849Z,65.41
2023-02-09T09:28:59.808Z,58.98
2023-02-09T09:29:59.838Z,66.23
2023-02-09T09:30:59.942Z,69.67
2023-02-09T09:31:59.806Z,65.69
2023-02-09T09:32:59.868Z,65.67
2023-02-09T09:33:59.780Z,70.18
2023-02-09T09:34:59.800Z,62.60
2023-02-09T09:35:59.749Z,67.00
2023-02-09T09:36:59.744Z,69.00
2023-02-09T09:37:59.765Z,62.77
2023-02-09T09:38:59.764Z,68.90
2023-02-09T09:39:59.750Z,62.93
2023-02-09T09:40:59.726Z,63.54
2023-02-09T09:41:59.703Z,66.61
2023-02-09T09:42:59.719Z,65.25
2023-02-09T09:43:59.768Z,63.81
2023-02-09T09:44:59.700Z,65.33
2023-02-09T09:45:59.732Z,67.39
2023-02-09T09:46:59.663Z,60.57
2023-02-09T09:47:59.696Z,67.40
2023-02-09T09:48:59.671Z,69.11
2023-02-09T09:49:59.659Z,66.52
2023-02-09T09:50:59.669Z,65.63
2023-02-09T09:51:59.661Z,64.60
2023-02-09T09:52:59.617Z,67.62
2023-02-09T09:53:59.606Z,63.33
2023-02-09T09:54:59.612Z,62.14
2023-02-09T09:55:59.654Z,69.45
2023-02-09T09:56:59.639Z,63.20
2023-02-09T09:57:59.577Z,67.36
2023-02-09T09:58:59.588Z,65.45
2023-02-09T09:59:59.600Z,69.68
2023-02-09T10:00:59.612Z,61.92
2023-02-09T10:01:59.599Z,69.71
2023-02-09T10:02:59.596Z,64.13
2023-02-09T10:03:59.534Z,61.90
2023-02-09T10:04:59.601Z,64.02
2023-02-09T10:05:59.520Z,71.20
2023-02-09T10:06:59.521Z,64.98
2023-02-09T10:07:59.610Z,67.72
2023-02-09T10:08:59.502Z,67.90
2023-02-09T10:09:59.551Z,66.56
2023-02-09T10:10:59.569Z,59.38
2023-02-09T10:11:59.481Z,66.90
2023-02-09T10:12:59.510Z,64.76
2023-02-09T10:13:59.507Z,64.18
2023-02-09T10:14:59.478Z,70.22
2023-02-09T10:15:59.475Z,60.93
2023-02-09T10:16:59.564Z,64.80
2023-02-09T10:17:59.460Z,65.88
2023-02-09T10:18:59.474Z,69.94
2023-02-09T10:19:59.457Z,69.52
2023-02-09T10:20:59.444Z,69.19
2023-02-09T10:21:59.430Z,62.54
2023-02-09T10:22:59.403Z,66.29
2023-02-09T10:23:59.455Z,61.68
2023-02-09T10:24:59.400Z,66.93
2023-02-09T10:25:59.381Z,68.99
2023-02-09T10:26:59.413Z,67.96
2023-02-09T10:27:59.410Z,67.70
2023-02-09T10:28:59.378Z,68.25
2023-02-09T10:29:59.376Z,63.39
2023-02-09T10:30:59.391Z,55.48
2023-02-09T10:31:59.388Z,68.77
2023-02-09T10:32:59.339Z,64.75
2023-02-09T10:33:59.398Z,62.88
2023-02-09T10:34:59.335Z,70.91
2023-02-09T10:35:59.294Z,65.44
2023-02-09T10:36:59.336Z,65.95
2023-02-09T10:37:59.290Z,62.58
2023-02-09T10:38:59.310Z,67.80
2023-02-09T10:39:59.289Z,66.04
2023-02-09T10:40:59.291Z,67.10
2023-02-09T10:41:59.315Z,65.29
2023-02-09T10:42:59.246Z,64.83
2023-02-09T10:43:59.257Z,69.07
2023-02-09T10:44:59.318Z,62.76
2023-02-09T10:45:59.241Z,69.82
2023-02-09T10:46:59.232Z,67.59
2023-02-09T10:47:59.221Z,54.61
2023-02-09T10:48:59.191Z,64.00
2023-02-09T10:49:59.212Z,64.10
2023-02-09T10:50:59.187Z,69.30
2023-02-09T10:51:59.196Z,66.09
2023-02-09T10:52:59.166Z,69.15
2023-02-09T10:53:59.187Z,62.24
2023-02-09T10:54:59.146Z,60.87
2023-02-09T10:55:59.154Z,60.59
2023-02-09T10:57:00.889Z,62.04
2023-02-09T10:57:59.170Z,67.63
2023-02-09T10:58:59.114Z,64.18
2023-02-09T10:59:59.120Z,66.82
2023-02-09T11:00:59.092Z,68.34
2023-02-09T11:01:59.173Z,71.68
2023-02-09T11:02:59.087Z,68.15
2023-02-09T11:03:59.142Z,66.41
2023-02-09T11:04:59.081Z,65.86
2023-02-09T11:05:59.076Z,67.59
2023-02-09T11:06:59.085Z,65.21
2023-02-09T11:07:59.069Z,68.77
2023-02-09T11:08:59.053Z,62.22
2023-02-09T11:09:59.032Z,65.92
2023-02-09T11:10:59.022Z,70.16
2023-02-09T11:11:59.946Z,71.88
2023-02-09T11:12:59.016Z,68.29
2023-02-09T11:13:59.026Z,69.50
2023-02-09T11:14:59.008Z,59.71
2023-02-09T11:15:59.072Z,62.14
2023-02-09T11:16:58.990Z,64.72
2023-02-09T11:17:59.001Z,68.17
2023-02-09T11:18:59.022Z,67.07
2023-02-09T11:19:58.986Z,68.53
2023-02-09T11:20:58.959Z,63.22
2023-02-09T11:21:58.943Z,66.54
2023-02-09T11:22:58.920Z,62.25
2023-02-09T11:23:58.968Z,63.06
2023-02-09T11:24:58.914Z,67.74
2023-02-09T11:25:58.929Z,66.56
2023-02-09T11:26:58.901Z,64.36
2023-02-09T11:27:58.935Z,67.16
2023-02-09T11:28:58.909Z,63.09
2023-02-09T11:29:58.908Z,63.75
2023-02-09T11:30:59.081Z,68.75
2023-02-09T11:31:58.954Z,71.39
2023-02-09T11:32:58.842Z,67.20
2023-02-09T11:33:58.871Z,63.85
2023-02-09T11:34:58.859Z,64.80
2023-02-09T11:35:58.825Z,63.39
2023-02-09T11:36:58.822Z,66.05
2023-02-09T11:37:58.826Z,66.40
2023-02-09T11:38:58.851Z,66.09
2023-02-09T11:39:58.804Z,66.87
2023-02-09T11:40:58.835Z,65.77
2023-02-09T11:41:58.772Z,64.34
2023-02-09T11:42:58.762Z,63.98
2023-02-09T11:43:58.766Z,67.68
2023-02-09T11:44:58.743Z,63.77
2023-02-09T11:45:58.773Z,64.84
2023-02-09T11:46:58.739Z,63.84
2023-02-09T11:47:58.734Z,70.22
2023-02-09T11:48:58.723Z,62.82
2023-02-09T11:49:58.706Z,69.37
2023-02-09T11:50:58.731Z,68.50
2023-02-09T11:51:58.706Z,66.94
2023-02-09T11:52:58.704Z,63.95
2023-02-09T11:53:58.683Z,68.92
2023-02-09T11:54:58.754Z,63.93
2023-02-09T11:55:59.433Z,66.83
2023-02-09T11:56:58.671Z,67.98
2023-02-09T11:57:58.636Z,61.16
2023-02-09T11:58:59.655Z,69.61
2023-02-09T11:59:58.700Z,68.28
2023-02-09T12:01:13.320Z,62.92
2023-02-09T12:02:00.629Z,58.51
2023-02-09T12:02:58.688Z,60.47
2023-02-09T12:03:58.614Z,68.98
2023-02-09T12:04:58.594Z,63.59
2023-02-09T12:05:58.599Z,63.30
2023-02-09T12:06:58.603Z,59.38
2023-02-09T12:07:58.609Z,69.38
2023-02-09T12:08:59.623Z,62.18
2023-02-09T12:09:58.558Z,67.39
2023-02-09T12:10:58.574Z,68.76
2023-02-09T12:11:58.563Z,65.64
2023-02-09T12:12:58.533Z,64.40
2023-02-09T12:13:58.550Z,63.20
2023-02-09T12:14:58.569Z,66.93
2023-02-09T12:15:59.548Z,67.56
2023-02-09T12:16:58.506Z,68.78
2023-02-09T12:17:58.511Z,66.90
2023-02-09T12:18:58.529Z,66.38
2023-02-09T12:19:59.548Z,65.78
2023-02-09T12:21:30.374Z,67.91
2023-02-09T12:21:58.480Z,68.76
2023-02-09T12:22:58.482Z,68.03
2023-02-09T12:23:58.490Z,67.68
2023-02-09T12:24:58.485Z,68.34
2023-02-09T12:25:58.464Z,65.46
2023-02-09T12:26:58.484Z,67.46
2023-02-09T12:27:58.993Z,65.26
2023-02-09T12:28:59.420Z,67.20
2023-02-09T12:29:58.428Z,68.66
2023-02-09T12:30:58.511Z,65.65
2023-02-09T12:31:58.445Z,67.87
2023-02-09T12:32:58.363Z,67.25
2023-02-09T12:33:58.411Z,67.51
2023-02-09T12:34:58.354Z,64.19
2023-02-09T12:35:58.381Z,72.23
2023-02-09T12:36:58.368Z,68.13
2023-02-09T12:37:58.375Z,68.18
2023-02-09T12:39:04.612Z,69.82
2023-02-09T12:40:00.313Z,65.41
2023-02-09T12:40:59.333Z,68.55
2023-02-09T12:41:58.356Z,66.48
2023-02-09T12:42:58.292Z,66.22
2023-02-09T12:43:58.303Z,64.00
2023-02-09T12:44:58.293Z,65.21
2023-02-09T12:45:58.325Z,63.33
2023-02-09T12:46:58.295Z,67.39
2023-02-09T12:47:58.286Z,68.94
2023-02-09T12:48:58.300Z,68.63
2023-02-09T12:49:59.038Z,66.60
2023-02-09T12:50:58.255Z,66.80
2023-02-09T12:51:58.295Z,65.85
2023-02-09T12:52:58.222Z,62.89
2023-02-09T12:53:58.206Z,63.07
2023-02-09T12:54:58.268Z,60.87
2023-02-09T12:55:58.198Z,63.28
2023-02-09T12:56:58.221Z,66.88
2023-02-09T12:57:58.232Z,69.52
2023-02-09T12:58:58.199Z,63.31
2023-02-09T12:59:58.221Z,64.94
2023-02-09T13:00:58.205Z,68.54
2023-02-09T13:01:58.159Z,66.66
2023-02-09T13:02:58.197Z,61.07
2023-02-09T13:03:58.255Z,63.13
2023-02-09T13:04:58.244Z,68.75
2023-02-09T13:05:58.143Z,64.15
2023-02-09T13:06:58.102Z,59.33
2023-02-09T13:07:58.149Z,69.28
2023-02-09T13:08:58.109Z,64.37
2023-02-09T13:09:58.132Z,66.98
2023-02-09T13:10:58.102Z,58.97
2023-02-09T13:11:58.071Z,66.59
2023-02-09T13:12:58.075Z,64.96
2023-02-09T13:13:58.114Z,63.87
2023-02-09T13:14:58.124Z,70.58